createdAt,value
2022-08-30T00:01:59.731Z,26.70
2022-08-30T00:04:27.822Z,26.70
2022-08-30T00:06:55.522Z,26.80
2022-08-30T00:09:23.506Z,26.80
2022-08-30T00:11:52.401Z,26.90
2022-08-30T00:14:21.665Z,27.00
2022-08-30T00:16:49.383Z,27.00
2022-08-30T00:19:17.027Z,27.10
2022-08-30T00:21:45.516Z,27.10
2022-08-30T00:24:13.272Z,27.10
2022-08-30T00:26:41.068Z,27.20
2022-08-30T00:29:08.790Z,27.20
2022-08-30T00:31:36.610Z,27.20
2022-08-30T00:34:04.497Z,27.30
2022-08-30T00:36:32.396Z,27.40
2022-08-30T00:39:00.256Z,27.40
2022-08-30T00:41:28.171Z,27.50
2022-08-30T00:43:55.853Z,27.60
2022-08-30T00:46:24.082Z,27.60
2022-08-30T00:48:53.351Z,27.70
2022-08-30T00:51:21.933Z,27.70
2022-08-30T00:53:51.396Z,27.80
2022-08-30T00:56:19.615Z,27.90
2022-08-30T00:58:50.959Z,28.00
2022-08-30T01:01:19.587Z,28.00
2022-08-30T01:03:49.384Z,28.20
2022-08-30T01:06:17.428Z,28.30
2022-08-30T01:08:46.084Z,28.40
2022-08-30T01:11:17.035Z,28.50
2022-08-30T01:13:47.560Z,28.60
2022-08-30T01:16:16.202Z,28.80
2022-08-30T01:18:45.690Z,28.80
2022-08-30T01:21:33.581Z,28.90
2022-08-30T01:24:01.707Z,29.00
2022-08-30T01:26:30.244Z,29.10
2022-08-30T01:29:01.069Z,29.20
2022-08-30T01:31:33.336Z,29.20
2022-08-30T01:34:08.412Z,29.30
2022-08-30T01:36:44.660Z,29.30
2022-08-30T01:39:14.759Z,29.30
2022-08-30T01:41:44.672Z,29.40
2022-08-30T01:44:18.234Z,29.50
2022-08-30T01:46:47.929Z,29.60
2022-08-30T01:49:27.792Z,29.70
2022-08-30T01:52:00.535Z,29.70
2022-08-30T01:54:33.205Z,29.80
2022-08-30T01:57:08.527Z,29.90
2022-08-30T01:59:37.669Z,30.00
2022-08-30T02:02:06.550Z,30.10
2022-08-30T02:04:37.566Z,30.10
2022-08-30T02:07:07.132Z,30.20
2022-08-30T02:09:35.479Z,30.10
2022-08-30T02:12:05.590Z,30.10
2022-08-30T02:14:35.346Z,30.00
2022-08-30T02:17:04.486Z,30.00
2022-08-30T02:19:32.690Z,29.90
2022-08-30T02:22:01.967Z,29.80
2022-08-30T02:24:30.828Z,29.90
2022-08-30T02:27:01.452Z,29.90
2022-08-30T02:29:30.290Z,29.80
2022-08-30T02:31:59.070Z,29.80
2022-08-30T02:34:27.798Z,29.80
2022-08-30T02:36:55.696Z,29.80
2022-08-30T02:39:23.760Z,29.70
2022-08-30T02:41:52.005Z,29.70
2022-08-30T02:44:24.497Z,29.70
2022-08-30T02:46:58.832Z,29.60
2022-08-30T02:49:33.685Z,29.60
2022-08-30T02:52:04.342Z,29.60
2022-08-30T02:54:37.630Z,29.70
2022-08-30T02:57:07.377Z,29.70
2022-08-30T02:59:51.348Z,29.70
2022-08-30T03:02:19.360Z,29.80
2022-08-30T03:04:47.342Z,29.80
2022-08-30T03:07:15.724Z,29.80
2022-08-30T03:09:45.344Z,29.80
2022-08-30T03:12:22.764Z,29.80
2022-08-30T03:14:50.863Z,29.80
2022-08-30T03:17:18.701Z,29.90
2022-08-30T03:19:47.224Z,29.90
2022-08-30T03:22:18.924Z,30.00
2022-08-30T03:24:48.146Z,30.10
2022-08-30T03:27:16.671Z,30.10
2022-08-30T03:29:44.738Z,30.10
2022-08-30T03:32:13.820Z,30.10
2022-08-30T03:34:42.153Z,30.20
2022-08-30T03:37:10.328Z,30.10
2022-08-30T03:39:38.934Z,30.20
2022-08-30T03:42:08.052Z,30.20
2022-08-30T03:44:38.299Z,30.20
2022-08-30T03:47:09.601Z,30.30
2022-08-30T03:49:38.030Z,30.30
2022-08-30T03:52:07.662Z,30.30
2022-08-30T03:54:37.864Z,30.40
2022-08-30T03:57:07.360Z,30.40
2022-08-30T03:59:35.410Z,30.40
2022-08-30T04:02:08.203Z,30.50
2022-08-30T04:04:36.105Z,30.50
2022-08-30T04:07:07.572Z,30.50
2022-08-30T04:09:45.950Z,30.60
2022-08-30T04:12:22.509Z,30.50
2022-08-30T04:14:53.390Z,30.50
2022-08-30T04:17:22.766Z,30.60
2022-08-30T04:22:35.149Z,30.50
2022-08-30T04:25:03.363Z,30.60
2022-08-30T04:27:31.318Z,30.60
2022-08-30T04:30:00.104Z,30.60
2022-08-30T04:32:29.695Z,30.60
2022-08-30T04:34:59.223Z,30.50
2022-08-30T04:37:27.748Z,30.50
2022-08-30T04:39:58.245Z,30.60
2022-08-30T04:42:28.657Z,30.50
2022-08-30T04:44:56.475Z,30.60
2022-08-30T04:47:24.463Z,30.60
2022-08-30T04:49:56.784Z,30.70
2022-08-30T04:52:26.017Z,30.90
2022-08-30T04:54:56.220Z,31.00
2022-08-30T04:57:28.291Z,31.10
2022-08-30T04:59:57.455Z,31.30
2022-08-30T05:02:26.190Z,31.50
2022-08-30T05:05:25.235Z,31.70
2022-08-30T05:07:53.361Z,31.80
2022-08-30T05:10:21.619Z,31.80
2022-08-30T05:12:52.328Z,31.70
2022-08-30T05:15:22.754Z,31.70
2022-08-30T05:17:50.736Z,31.60
2022-08-30T05:20:18.458Z,31.60
2022-08-30T05:22:53.422Z,31.60
2022-08-30T05:25:28.119Z,31.50
2022-08-30T05:27:56.020Z,31.50
2022-08-30T05:30:24.382Z,31.40
2022-08-30T05:33:54.539Z,31.40
2022-08-30T05:36:43.555Z,31.30
2022-08-30T05:39:13.178Z,31.20
2022-08-30T05:41:42.575Z,31.10
2022-08-30T05:44:11.948Z,31.00
2022-08-30T05:46:44.036Z,31.00
2022-08-30T05:49:15.365Z,31.00
2022-08-30T05:51:45.989Z,30.90
2022-08-30T05:54:17.600Z,30.90
2022-08-30T05:56:46.651Z,30.80
2022-08-30T05:59:16.086Z,30.80
2022-08-30T06:01:45.214Z,30.70
2022-08-30T06:04:17.353Z,30.60
2022-08-30T06:06:46.160Z,30.60
2022-08-30T06:09:14.437Z,30.60
2022-08-30T06:11:50.057Z,30.50
2022-08-30T06:14:17.941Z,30.40
2022-08-30T06:16:50.348Z,30.40
2022-08-30T06:19:27.183Z,30.40
2022-08-30T06:21:55.251Z,30.40
2022-08-30T06:24:35.735Z,30.40
2022-08-30T06:27:10.939Z,30.40
2022-08-30T06:29:39.384Z,30.40
2022-08-30T06:32:08.876Z,30.40
2022-08-30T06:34:36.815Z,30.50
2022-08-30T06:37:25.590Z,30.50
2022-08-30T06:39:58.572Z,30.50
2022-08-30T06:42:32.508Z,30.60
2022-08-30T06:45:11.098Z,30.60
2022-08-30T06:47:44.944Z,30.70
2022-08-30T06:50:13.782Z,30.80
2022-08-30T06:52:43.444Z,30.80
2022-08-30T06:55:12.985Z,30.90
2022-08-30T06:57:44.001Z,31.00
2022-08-30T07:00:16.651Z,31.10
2022-08-30T07:02:47.767Z,31.20
2022-08-30T07:05:18.793Z,31.30
2022-08-30T07:07:47.120Z,31.30
2022-08-30T07:10:17.057Z,31.40
2022-08-30T07:12:50.399Z,31.40
2022-08-30T07:15:32.993Z,31.40
2022-08-30T07:18:26.219Z,31.30
2022-08-30T07:20:54.687Z,31.40
2022-08-30T07:23:23.770Z,31.30
2022-08-30T07:25:53.029Z,31.30
2022-08-30T07:28:21.387Z,31.30
2022-08-30T07:30:54.548Z,31.30
2022-08-30T07:33:23.474Z,31.30
2022-08-30T07:35:51.567Z,31.30
2022-08-30T07:38:20.389Z,31.30
2022-08-30T07:40:48.459Z,31.30
2022-08-30T07:43:16.472Z,31.30
2022-08-30T07:45:44.611Z,31.30
2022-08-30T07:48:13.604Z,31.30
2022-08-30T07:50:44.697Z,31.30
2022-08-30T07:53:12.907Z,31.30
2022-08-30T07:55:40.974Z,31.30
2022-08-30T07:58:12.444Z,31.30
2022-08-30T08:00:41.254Z,31.40
2022-08-30T08:03:10.737Z,31.40
2022-08-30T08:05:41.534Z,31.50
2022-08-30T08:08:09.822Z,31.50
2022-08-30T08:10:39.590Z,31.50
2022-08-30T08:13:08.152Z,31.60
2022-08-30T08:15:37.206Z,31.70
2022-08-30T08:18:07.349Z,31.80
2022-08-30T08:20:36.077Z,31.80
2022-08-30T08:23:07.981Z,31.80
2022-08-30T08:25:38.978Z,31.80
2022-08-30T08:28:06.933Z,31.80
2022-08-30T08:30:35.731Z,31.80
2022-08-30T08:33:04.412Z,31.70
2022-08-30T08:35:32.973Z,31.60
2022-08-30T08:38:01.015Z,31.60
2022-08-30T08:40:29.265Z,31.50
2022-08-30T08:43:03.411Z,31.50
2022-08-30T08:45:37.643Z,31.40
2022-08-30T08:48:21.617Z,31.50
2022-08-30T08:51:09.168Z,31.40
2022-08-30T08:53:52.493Z,31.40
2022-08-30T08:56:23.194Z,31.40
2022-08-30T08:58:53.406Z,31.30
2022-08-30T09:01:23.753Z,31.30
2022-08-30T09:03:53.911Z,31.20
2022-08-30T09:06:45.022Z,31.20
2022-08-30T09:09:16.763Z,31.20
2022-08-30T09:11:45.604Z,31.20
2022-08-30T09:14:17.559Z,31.20
2022-08-30T09:16:47.047Z,31.10
2022-08-30T09:19:27.508Z,31.00
2022-08-30T09:21:59.710Z,31.00
2022-08-30T09:24:28.056Z,31.00
2022-08-30T09:26:59.057Z,30.90
2022-08-30T09:29:28.240Z,30.80
2022-08-30T09:32:25.225Z,30.80
2022-08-30T09:34:44.797Z,30.80
2022-08-30T09:37:27.184Z,30.80
2022-08-30T09:39:55.861Z,30.80
2022-08-30T09:42:25.874Z,30.70
2022-08-30T09:45:10.800Z,30.70
2022-08-30T09:47:44.541Z,30.70
2022-08-30T09:50:21.737Z,30.70
2022-08-30T09:53:01.521Z,30.60
2022-08-30T09:55:44.578Z,30.60
2022-08-30T09:58:31.972Z,30.70
2022-08-30T10:01:19.405Z,30.60
2022-08-30T10:04:02.999Z,30.60
2022-08-30T10:06:46.635Z,30.60
2022-08-30T10:09:56.043Z,30.60
2022-08-30T10:12:43.442Z,30.60
2022-08-30T10:15:24.279Z,30.50
2022-08-30T10:18:05.162Z,30.40
2022-08-30T10:20:53.360Z,30.30
2022-08-30T10:23:24.939Z,30.30
2022-08-30T10:25:57.385Z,30.30
2022-08-30T10:28:37.340Z,30.30
2022-08-30T10:31:18.039Z,30.30
2022-08-30T10:33:48.644Z,30.30
2022-08-30T10:36:18.804Z,30.30
2022-08-30T10:38:54.633Z,30.30
2022-08-30T10:41:30.252Z,30.20
2022-08-30T10:44:18.868Z,30.20
2022-08-30T10:47:07.174Z,30.20
2022-08-30T10:49:40.549Z,30.20
2022-08-30T10:52:28.087Z,30.10
2022-08-30T10:55:01.314Z,30.00
2022-08-30T10:57:29.159Z,30.00
2022-08-30T11:00:19.604Z,30.00
2022-08-30T11:02:59.598Z,30.00
2022-08-30T11:05:42.908Z,29.90
2022-08-30T11:08:22.039Z,29.90
2022-08-30T11:11:03.696Z,29.90
2022-08-30T11:13:32.220Z,29.80
2022-08-30T11:16:19.542Z,29.80
2022-08-30T11:18:53.246Z,29.80
2022-08-30T11:21:33.146Z,29.80
2022-08-30T11:24:07.871Z,29.70
2022-08-30T11:26:52.864Z,29.70
2022-08-30T11:29:40.319Z,29.60
2022-08-30T11:32:28.172Z,29.60
2022-08-30T11:34:57.452Z,29.60
2022-08-30T11:37:37.863Z,29.50
2022-08-30T11:40:07.142Z,29.50
2022-08-30T11:42:43.741Z,29.50
2022-08-30T11:45:25.026Z,29.50
2022-08-30T11:47:55.044Z,29.40
2022-08-30T11:50:46.455Z,29.40
2022-08-30T11:53:28.447Z,29.40
2022-08-30T11:56:15.970Z,29.40
2022-08-30T11:58:55.744Z,29.30
2022-08-30T12:01:50.665Z,29.30
2022-08-30T12:04:35.979Z,29.30
2022-08-30T12:07:06.392Z,29.20
2022-08-30T12:09:57.600Z,29.20
2022-08-30T12:12:37.910Z,29.20
2022-08-30T12:15:05.766Z,29.20
2022-08-30T12:17:57.908Z,29.20
2022-08-30T12:20:31.552Z,29.20
2022-08-30T12:23:14.115Z,29.20
2022-08-30T12:25:43.089Z,29.20
2022-08-30T12:28:12.249Z,29.10
2022-08-30T12:30:41.232Z,29.10
2022-08-30T12:33:14.695Z,29.10
2022-08-30T12:35:45.563Z,29.10
2022-08-30T12:38:18.785Z,29.10
2022-08-30T12:40:56.660Z,29.10
2022-08-30T12:43:27.330Z,29.10
2022-08-30T12:46:09.220Z,29.10
2022-08-30T12:48:41.084Z,29.00
2022-08-30T12:51:11.316Z,29.00
2022-08-30T12:53:42.280Z,29.00
2022-08-30T12:56:13.339Z,29.00
2022-08-30T12:58:44.319Z,29.00
2022-08-30T13:01:25.941Z,29.00
2022-08-30T13:04:14.652Z,28.90
2022-08-30T13:07:02.154Z,28.90
2022-08-30T13:09:39.904Z,28.90
2022-08-30T13:12:10.141Z,28.90
2022-08-30T13:14:43.549Z,28.90
2022-08-30T13:17:26.091Z,28.80
2022-08-30T13:20:03.051Z,28.80
2022-08-30T13:22:33.156Z,28.80
2022-08-30T13:25:01.762Z,28.70
2022-08-30T13:27:29.975Z,28.70
2022-08-30T13:29:57.971Z,28.70
2022-08-30T13:32:26.564Z,28.70
2022-08-30T13:34:54.865Z,28.70
2022-08-30T13:40:12.952Z,28.70
2022-08-30T13:42:43.263Z,28.70
2022-08-30T13:48:00.825Z,28.80
2022-08-30T13:50:30.597Z,28.80
2022-08-30T13:52:58.798Z,28.90
2022-08-30T13:55:26.833Z,28.90
2022-08-30T13:57:57.599Z,29.00
2022-08-30T14:00:26.262Z,28.90
2022-08-30T14:02:57.590Z,28.90
2022-08-30T14:05:49.275Z,28.90
2022-08-30T14:08:45.202Z,28.90
2022-08-30T14:11:18.694Z,28.90
2022-08-30T14:16:37.069Z,28.90
2022-08-30T14:19:05.939Z,28.90
2022-08-30T14:21:35.814Z,28.90
2022-08-30T14:24:05.720Z,28.90
2022-08-30T14:26:40.274Z,28.90
2022-08-30T14:29:09.790Z,28.90
2022-08-30T14:31:39.062Z,28.90
2022-08-30T14:34:07.787Z,28.80
2022-08-30T14:36:36.948Z,28.80
2022-08-30T14:39:08.561Z,28.80
2022-08-30T14:41:43.377Z,28.70
2022-08-30T14:44:12.502Z,28.70
2022-08-30T14:46:40.496Z,28.60
2022-08-30T14:49:11.214Z,28.70
2022-08-30T14:51:39.208Z,28.70
2022-08-30T14:54:07.099Z,28.60
2022-08-30T14:56:35.568Z,28.60
2022-08-30T14:59:07.864Z,28.60
2022-08-30T15:01:39.244Z,28.50
2022-08-30T15:04:07.765Z,28.50
2022-08-30T15:06:36.684Z,28.50
2022-08-30T15:09:07.275Z,28.50
2022-08-30T15:11:35.287Z,28.50
2022-08-30T15:14:02.916Z,28.50
2022-08-30T15:16:34.245Z,28.40
2022-08-30T15:19:02.960Z,28.40
2022-08-30T15:21:38.199Z,28.40
2022-08-30T15:24:06.724Z,28.40
2022-08-30T15:26:36.547Z,28.30
2022-08-30T15:29:05.493Z,28.30
2022-08-30T15:31:33.230Z,28.30
2022-08-30T15:34:01.140Z,28.30
2022-08-30T15:36:29.692Z,28.30
2022-08-30T15:38:59.848Z,28.20
2022-08-30T15:41:28.160Z,28.20
2022-08-30T15:43:56.954Z,28.20
2022-08-30T15:46:32.396Z,28.20
2022-08-30T15:49:01.488Z,28.20
2022-08-30T15:51:30.883Z,28.20
2022-08-30T15:54:09.527Z,28.10
2022-08-30T15:56:39.787Z,28.10
2022-08-30T15:59:07.742Z,28.10
2022-08-30T16:01:37.573Z,28.10
2022-08-30T16:04:05.543Z,28.10
2022-08-30T16:06:35.648Z,28.10
2022-08-30T16:09:04.661Z,28.10
2022-08-30T16:11:32.939Z,28.10
2022-08-30T16:14:02.800Z,28.10
2022-08-30T16:16:31.456Z,28.10
2022-08-30T16:18:59.419Z,28.10
2022-08-30T16:21:31.421Z,28.10
2022-08-30T16:24:01.719Z,28.10
2022-08-30T16:26:30.311Z,28.10
2022-08-30T16:28:58.640Z,28.10
2022-08-30T16:31:27.823Z,28.10
2022-08-30T16:34:02.255Z,28.10
2022-08-30T16:36:32.250Z,28.10
2022-08-30T16:39:00.712Z,28.10
2022-08-30T16:41:28.647Z,28.10
2022-08-30T16:43:56.892Z,28.10
2022-08-30T16:46:27.254Z,28.00
2022-08-30T16:48:57.303Z,28.00
2022-08-30T16:51:27.585Z,28.00
2022-08-30T16:54:02.485Z,28.00
2022-08-30T16:56:31.177Z,27.90
2022-08-30T16:59:02.645Z,27.90
2022-08-30T17:01:32.578Z,27.90
2022-08-30T17:04:04.824Z,27.90
2022-08-30T17:06:33.277Z,27.90
2022-08-30T17:09:03.976Z,27.90
2022-08-30T17:11:32.904Z,27.80
2022-08-30T17:14:01.502Z,27.80
2022-08-30T17:16:31.295Z,27.80
2022-08-30T17:19:00.887Z,27.80
2022-08-30T17:21:29.787Z,27.70
2022-08-30T17:24:01.698Z,27.70
2022-08-30T17:26:35.873Z,27.70
2022-08-30T17:29:05.070Z,27.70
2022-08-30T17:31:32.891Z,27.70
2022-08-30T17:34:03.199Z,27.70
2022-08-30T17:36:32.490Z,27.70
2022-08-30T17:39:01.178Z,27.70
2022-08-30T17:41:29.022Z,27.60
2022-08-30T17:43:56.765Z,27.70
2022-08-30T17:46:25.278Z,27.60
2022-08-30T17:48:58.001Z,27.60
2022-08-30T17:51:29.866Z,27.60
2022-08-30T17:53:58.195Z,27.60
2022-08-30T17:56:34.218Z,27.60
2022-08-30T17:59:06.768Z,27.50
2022-08-30T18:01:36.042Z,27.50
2022-08-30T18:04:06.141Z,27.60
2022-08-30T18:06:35.152Z,27.50
2022-08-30T18:09:04.099Z,27.50
2022-08-30T18:11:36.471Z,27.50
2022-08-30T18:14:04.997Z,27.50
2022-08-30T18:16:34.925Z,27.50
2022-08-30T18:19:04.278Z,27.50
2022-08-30T18:21:32.925Z,27.50
2022-08-30T18:24:00.693Z,27.50
2022-08-30T18:26:28.469Z,27.40
2022-08-30T18:28:56.663Z,27.40
2022-08-30T18:31:24.905Z,27.40
2022-08-30T18:33:53.567Z,27.40
2022-08-30T18:36:22.654Z,27.40
2022-08-30T18:38:51.422Z,27.40
2022-08-30T18:41:21.347Z,27.40
2022-08-30T18:43:55.036Z,27.40
2022-08-30T18:46:35.123Z,27.40
2022-08-30T18:49:03.723Z,27.40
2022-08-30T18:51:33.476Z,27.40
2022-08-30T18:54:01.189Z,27.40
2022-08-30T18:56:33.096Z,27.40
2022-08-30T18:59:01.747Z,27.40
2022-08-30T19:01:30.322Z,27.30
2022-08-30T19:03:58.152Z,27.30
2022-08-30T19:06:27.352Z,27.30
2022-08-30T19:08:55.153Z,27.30
2022-08-30T19:11:23.281Z,27.30
2022-08-30T19:13:51.049Z,27.30
2022-08-30T19:16:22.266Z,27.30
2022-08-30T19:18:53.388Z,27.30
2022-08-30T19:21:21.520Z,27.30
2022-08-30T19:23:54.417Z,27.20
2022-08-30T19:26:22.989Z,27.20
2022-08-30T19:28:50.669Z,27.20
2022-08-30T19:31:18.592Z,27.20
2022-08-30T19:33:46.272Z,27.20
2022-08-30T19:36:14.101Z,27.20
2022-08-30T19:38:44.706Z,27.20
2022-08-30T19:41:13.224Z,27.20
2022-08-30T19:43:41.265Z,27.20
2022-08-30T19:46:09.355Z,27.20
2022-08-30T19:48:43.365Z,27.20
2022-08-30T19:51:12.008Z,27.20
2022-08-30T19:53:42.420Z,27.20
2022-08-30T19:56:10.479Z,27.20
2022-08-30T19:58:38.395Z,27.20
2022-08-30T20:01:10.857Z,27.20
2022-08-30T20:03:40.063Z,27.20
2022-08-30T20:06:11.272Z,27.10
2022-08-30T20:08:38.959Z,27.20
2022-08-30T20:11:07.445Z,27.10
2022-08-30T20:13:39.903Z,27.10
2022-08-30T20:16:07.732Z,27.10
2022-08-30T20:18:36.981Z,27.10
2022-08-30T20:21:04.969Z,27.10
2022-08-30T20:23:42.374Z,27.10
2022-08-30T20:26:12.692Z,27.10
2022-08-30T20:28:46.119Z,27.10
2022-08-30T20:31:14.058Z,27.10
2022-08-30T20:33:41.802Z,27.10
2022-08-30T20:36:13.310Z,27.10
2022-08-30T20:38:41.904Z,27.10
2022-08-30T20:41:10.986Z,27.10
2022-08-30T20:43:38.853Z,27.10
2022-08-30T20:46:11.477Z,27.00
2022-08-30T20:48:39.615Z,27.00
2022-08-30T20:51:12.816Z,27.00
2022-08-30T20:53:41.564Z,27.00
2022-08-30T20:56:13.833Z,27.00
2022-08-30T20:58:41.921Z,27.00
2022-08-30T21:01:10.822Z,27.00
2022-08-30T21:03:39.049Z,27.00
2022-08-30T21:06:08.150Z,27.00
2022-08-30T21:08:36.242Z,27.00
2022-08-30T21:11:04.364Z,27.00
2022-08-30T21:13:32.452Z,27.00
2022-08-30T21:16:03.481Z,27.00
2022-08-30T21:18:33.351Z,27.00
2022-08-30T21:21:08.025Z,26.90
2022-08-30T21:23:36.752Z,26.90
2022-08-30T21:26:05.560Z,26.90
2022-08-30T21:28:33.458Z,26.90
2022-08-30T21:31:06.645Z,26.90
2022-08-30T21:33:34.926Z,26.90
2022-08-30T21:36:22.280Z,26.90
2022-08-30T21:38:50.263Z,26.90
2022-08-30T21:41:22.390Z,26.90
2022-08-30T21:43:59.283Z,26.90
2022-08-30T21:46:27.616Z,26.90
2022-08-30T21:48:55.561Z,26.80
2022-08-30T21:51:23.282Z,26.90
2022-08-30T21:53:51.051Z,26.80
2022-08-30T21:56:21.824Z,26.80
2022-08-30T21:58:53.054Z,26.80
2022-08-30T22:01:23.879Z,26.80
2022-08-30T22:03:52.716Z,26.90
2022-08-30T22:06:20.419Z,26.90
2022-08-30T22:08:48.989Z,26.90
2022-08-30T22:11:19.174Z,26.90
2022-08-30T22:13:51.006Z,26.90
2022-08-30T22:16:20.841Z,26.90
2022-08-30T22:18:49.006Z,26.80
2022-08-30T22:21:19.469Z,26.80
2022-08-30T22:23:47.197Z,26.80
2022-08-30T22:26:15.683Z,26.80
2022-08-30T22:28:43.421Z,26.70
2022-08-30T22:31:13.233Z,26.70
2022-08-30T22:33:41.088Z,26.70
2022-08-30T22:36:10.219Z,26.70
2022-08-30T22:38:37.943Z,26.70
2022-08-30T22:41:08.795Z,26.70
2022-08-30T22:43:36.632Z,26.70
2022-08-30T22:46:06.109Z,26.70
2022-08-30T22:48:38.317Z,26.70
2022-08-30T22:51:06.332Z,26.70
2022-08-30T22:53:34.147Z,26.60
2022-08-30T22:56:07.819Z,26.60
2022-08-30T22:58:35.480Z,26.60
2022-08-30T23:01:03.643Z,26.60
2022-08-30T23:03:31.736Z,26.70
2022-08-30T23:05:59.462Z,26.70
2022-08-30T23:08:27.603Z,26.70
2022-08-30T23:10:58.262Z,26.70
2022-08-30T23:13:26.813Z,26.70
2022-08-30T23:15:55.350Z,26.70
2022-08-30T23:18:22.971Z,26.70
2022-08-30T23:20:51.604Z,26.80
2022-08-30T23:23:32.343Z,26.80
2022-08-30T23:26:13.133Z,26.80
2022-08-30T23:28:53.958Z,26.80
2022-08-30T23:31:33.958Z,26.90
2022-08-30T23:34:14.291Z,26.90
2022-08-30T23:36:54.286Z,26.90
2022-08-30T23:39:34.223Z,26.90
2022-08-30T23:42:14.206Z,26.90
2022-08-30T23:44:54.107Z,26.90
2022-08-30T23:47:34.098Z,27.00
2022-08-30T23:50:14.028Z,27.00
2022-08-30T23:52:54.820Z,27.10
2022-08-30T23:55:35.484Z,27.10
2022-08-30T23:58:15.435Z,27.10
